createdAt,value
2023-12-23T00:01:28.348Z,12.80
2023-12-23T00:03:30.123Z,12.90
2023-12-23T00:05:31.927Z,12.80
2023-12-23T00:07:34.477Z,12.80
2023-12-23T00:09:36.301Z,12.80
2023-12-23T00:11:38.091Z,12.80
2023-12-23T00:13:39.869Z,12.80
2023-12-23T00:15:41.753Z,12.80
2023-12-23T00:17:47.240Z,12.80
2023-12-23T00:19:51.208Z,12.80
2023-12-23T00:21:53.091Z,12.80
2023-12-23T00:23:54.876Z,12.80
2023-12-23T00:25:57.107Z,12.80
2023-12-23T00:27:58.945Z,12.80
2023-12-23T00:30:00.764Z,12.80
2023-12-23T00:32:03.561Z,12.80
2023-12-23T00:34:05.595Z,12.80
2023-12-23T00:36:07.357Z,12.80
2023-12-23T00:38:09.909Z,12.70
2023-12-23T00:40:11.801Z,12.70
2023-12-23T00:42:13.633Z,12.70
2023-12-23T00:44:15.505Z,12.70
2023-12-23T00:46:17.902Z,12.70
2023-12-23T00:48:19.964Z,12.70
2023-12-23T00:50:21.862Z,12.70
2023-12-23T00:52:24.001Z,12.80
2023-12-23T00:54:25.710Z,12.70
2023-12-23T00:56:27.473Z,12.70
2023-12-23T00:58:29.209Z,12.70
2023-12-23T01:00:30.975Z,12.70
2023-12-23T01:02:33.237Z,12.70
2023-12-23T01:04:35.014Z,12.70
2023-12-23T01:06:36.742Z,12.70
2023-12-23T01:08:38.490Z,12.70
2023-12-23T01:10:40.272Z,12.70
2023-12-23T01:12:42.053Z,12.70
2023-12-23T01:14:43.864Z,12.70
2023-12-23T01:16:45.782Z,12.70
2023-12-23T01:18:48.835Z,12.70
2023-12-23T01:20:50.635Z,12.70
2023-12-23T01:22:52.406Z,12.70
2023-12-23T01:24:54.243Z,12.70
2023-12-23T01:26:57.484Z,12.70
2023-12-23T01:29:01.828Z,12.70
2023-12-23T01:31:03.857Z,12.70
2023-12-23T01:33:05.943Z,12.70
2023-12-23T01:35:07.973Z,12.70
2023-12-23T01:37:09.773Z,12.70
2023-12-23T01:39:11.959Z,12.70
2023-12-23T01:41:13.826Z,12.70
2023-12-23T01:43:15.912Z,12.70
2023-12-23T01:45:17.694Z,12.70
2023-12-23T01:47:19.623Z,12.70
2023-12-23T01:49:22.221Z,12.70
2023-12-23T01:51:24.239Z,12.70
2023-12-23T01:53:26.384Z,12.70
2023-12-23T01:55:28.448Z,12.70
2023-12-23T01:57:30.192Z,12.70
2023-12-23T01:59:32.003Z,12.70
2023-12-23T02:01:34.151Z,12.80
2023-12-23T02:03:36.214Z,12.80
2023-12-23T02:05:38.198Z,12.70
2023-12-23T02:07:43.730Z,12.70
2023-12-23T02:09:45.732Z,12.80
2023-12-23T02:11:47.421Z,12.70
2023-12-23T02:13:56.523Z,12.70
2023-12-23T02:15:58.992Z,12.70
2023-12-23T02:18:01.274Z,12.70
2023-12-23T02:20:03.376Z,12.70
2023-12-23T02:22:05.312Z,12.70
2023-12-23T02:24:07.085Z,12.70
2023-12-23T02:26:10.171Z,12.70
2023-12-23T02:28:13.199Z,12.70
2023-12-23T02:30:16.184Z,12.70
2023-12-23T02:32:20.218Z,12.70
2023-12-23T02:34:23.147Z,12.70
2023-12-23T02:36:25.032Z,12.70
2023-12-23T02:38:26.847Z,12.70
2023-12-23T02:40:28.955Z,12.70
2023-12-23T02:42:30.648Z,12.70
2023-12-23T02:44:32.449Z,12.70
2023-12-23T02:46:34.161Z,12.70
2023-12-23T02:48:36.142Z,12.60
2023-12-23T02:50:37.949Z,12.60
2023-12-23T02:52:39.713Z,12.60
2023-12-23T02:54:41.405Z,12.60
2023-12-23T02:56:43.138Z,12.60
2023-12-23T02:58:44.968Z,12.60
2023-12-23T03:00:47.064Z,12.60
2023-12-23T03:02:49.095Z,12.60
2023-12-23T03:04:51.042Z,12.60
2023-12-23T03:06:52.764Z,12.60
2023-12-23T03:08:54.463Z,12.60
2023-12-23T03:10:56.233Z,12.60
2023-12-23T03:12:58.005Z,12.60
2023-12-23T03:15:00.346Z,12.60
2023-12-23T03:17:02.122Z,12.50
2023-12-23T03:19:05.074Z,12.60
2023-12-23T03:21:06.950Z,12.50
2023-12-23T03:23:08.745Z,12.50
2023-12-23T03:25:10.479Z,12.50
2023-12-23T03:27:12.217Z,12.50
2023-12-23T03:29:14.028Z,12.50
2023-12-23T03:31:15.933Z,12.50
2023-12-23T03:33:17.879Z,12.50
2023-12-23T03:35:19.792Z,12.50
2023-12-23T03:37:21.543Z,12.50
2023-12-23T03:39:23.271Z,12.50
2023-12-23T03:41:25.246Z,12.50
2023-12-23T03:43:27.654Z,12.50
2023-12-23T03:45:29.587Z,12.50
2023-12-23T03:47:31.359Z,12.50
2023-12-23T03:49:33.133Z,12.50
2023-12-23T03:51:35.709Z,12.50
2023-12-23T03:53:37.380Z,12.50
2023-12-23T03:55:40.388Z,12.50
2023-12-23T03:57:44.240Z,12.50
2023-12-23T03:59:45.965Z,12.50
2023-12-23T04:01:47.698Z,12.50
2023-12-23T04:03:49.554Z,12.50
2023-12-23T04:05:51.316Z,12.50
2023-12-23T04:07:53.211Z,12.50
2023-12-23T04:09:55.238Z,12.50
2023-12-23T04:11:56.976Z,12.50
2023-12-23T04:13:58.923Z,12.50
2023-12-23T04:16:03.368Z,12.50
2023-12-23T04:18:06.143Z,12.50
2023-12-23T04:20:08.340Z,12.50
2023-12-23T04:22:10.230Z,12.50
2023-12-23T04:24:11.987Z,12.50
2023-12-23T04:26:15.679Z,12.50
2023-12-23T04:28:21.804Z,12.50
2023-12-23T04:30:23.873Z,12.40
2023-12-23T04:32:25.904Z,12.40
2023-12-23T04:34:27.661Z,12.50
2023-12-23T04:36:29.397Z,12.40
2023-12-23T04:38:31.197Z,12.40
2023-12-23T04:40:32.945Z,12.40
2023-12-23T04:42:34.726Z,12.40
2023-12-23T04:44:36.480Z,12.40
2023-12-23T04:46:38.299Z,12.40
2023-12-23T04:48:40.151Z,12.40
2023-12-23T04:50:42.054Z,12.50
2023-12-23T04:52:43.852Z,12.40
2023-12-23T04:54:45.684Z,12.40
2023-12-23T04:56:47.406Z,12.50
2023-12-23T04:58:49.274Z,12.50
2023-12-23T05:00:51.459Z,12.40
2023-12-23T05:02:53.604Z,12.50
2023-12-23T05:04:55.664Z,12.50
2023-12-23T05:07:00.450Z,12.50
2023-12-23T05:09:02.164Z,12.40
2023-12-23T05:11:04.067Z,12.50
2023-12-23T05:13:05.924Z,12.40
2023-12-23T05:15:07.901Z,12.40
2023-12-23T05:17:09.674Z,12.40
2023-12-23T05:19:11.466Z,12.40
2023-12-23T05:21:13.244Z,12.40
2023-12-23T05:23:15.051Z,12.40
2023-12-23T05:25:16.818Z,12.40
2023-12-23T05:27:18.546Z,12.40
2023-12-23T05:29:20.621Z,12.40
2023-12-23T05:31:22.545Z,12.40
2023-12-23T05:33:26.121Z,12.40
2023-12-23T05:35:28.220Z,12.40
2023-12-23T05:37:30.298Z,12.40
2023-12-23T05:39:32.096Z,12.50
2023-12-23T05:41:33.931Z,12.40
2023-12-23T05:43:35.684Z,12.40
2023-12-23T05:45:37.855Z,12.40
2023-12-23T05:47:39.698Z,12.40
2023-12-23T05:49:41.488Z,12.40
2023-12-23T05:51:43.218Z,12.40
2023-12-23T05:53:44.981Z,12.40
2023-12-23T05:55:47.620Z,12.40
2023-12-23T05:57:49.389Z,12.40
2023-12-23T05:59:51.172Z,12.40
2023-12-23T06:01:53.560Z,12.40
2023-12-23T06:03:55.866Z,12.40
2023-12-23T06:05:57.646Z,12.40
2023-12-23T06:07:59.473Z,12.40
2023-12-23T06:10:01.418Z,12.40
2023-12-23T06:12:03.525Z,12.40
2023-12-23T06:14:05.281Z,12.40
2023-12-23T06:16:07.568Z,12.40
2023-12-23T06:18:09.393Z,12.40
2023-12-23T06:20:11.506Z,12.40
2023-12-23T06:22:13.259Z,12.40
2023-12-23T06:24:15.045Z,12.40
2023-12-23T06:26:16.854Z,12.40
2023-12-23T06:28:18.618Z,12.40
2023-12-23T06:30:20.339Z,12.40
2023-12-23T06:32:22.229Z,12.40
2023-12-23T06:34:24.086Z,12.40
2023-12-23T06:36:25.913Z,12.40
2023-12-23T06:38:27.673Z,12.30
2023-12-23T06:40:30.051Z,12.30
2023-12-23T06:42:31.789Z,12.30
2023-12-23T06:44:33.849Z,12.30
2023-12-23T06:46:35.664Z,12.30
2023-12-23T06:48:38.120Z,12.30
2023-12-23T06:50:40.144Z,12.30
2023-12-23T06:52:42.576Z,12.30
2023-12-23T06:54:44.394Z,12.30
2023-12-23T06:56:46.211Z,12.30
2023-12-23T06:58:48.071Z,12.30
2023-12-23T07:00:49.864Z,12.30
2023-12-23T07:02:52.875Z,12.30
2023-12-23T07:04:54.835Z,12.30
2023-12-23T07:06:56.637Z,12.30
2023-12-23T07:08:58.335Z,12.30
2023-12-23T07:11:00.168Z,12.30
2023-12-23T07:13:01.897Z,12.30
2023-12-23T07:15:04.350Z,12.30
2023-12-23T07:17:06.179Z,12.30
2023-12-23T07:19:07.993Z,12.30
2023-12-23T07:21:09.742Z,12.30
2023-12-23T07:23:11.588Z,12.30
2023-12-23T07:25:13.329Z,12.30
2023-12-23T07:27:15.090Z,12.30
2023-12-23T07:29:17.281Z,12.30
2023-12-23T07:31:19.188Z,12.30
2023-12-23T07:33:21.977Z,12.30
2023-12-23T07:35:23.940Z,12.30
2023-12-23T07:37:25.770Z,12.20
2023-12-23T07:39:27.558Z,12.30
2023-12-23T07:41:29.298Z,12.30
2023-12-23T07:43:31.056Z,12.30
2023-12-23T07:45:32.859Z,12.20
2023-12-23T07:47:34.738Z,12.30
2023-12-23T07:49:38.940Z,12.20
2023-12-23T07:51:40.979Z,12.20
2023-12-23T07:53:42.805Z,12.20
2023-12-23T07:55:44.683Z,12.20
2023-12-23T07:57:49.304Z,12.20
2023-12-23T07:59:51.110Z,12.20
2023-12-23T08:01:53.056Z,12.20
2023-12-23T08:03:57.302Z,12.20
2023-12-23T08:05:59.338Z,12.20
2023-12-23T08:08:01.198Z,12.20
2023-12-23T08:10:03.640Z,12.20
2023-12-23T08:12:05.690Z,12.30
2023-12-23T08:14:07.386Z,12.20
2023-12-23T08:16:09.144Z,12.20
2023-12-23T08:18:11.090Z,12.20
2023-12-23T08:20:12.951Z,12.20
2023-12-23T08:22:14.776Z,12.20
2023-12-23T08:24:16.548Z,12.30
2023-12-23T08:26:18.335Z,12.30
2023-12-23T08:28:20.083Z,12.20
2023-12-23T08:30:21.939Z,12.20
2023-12-23T08:32:23.985Z,12.20
2023-12-23T08:34:26.800Z,12.20
2023-12-23T08:36:28.538Z,12.20
2023-12-23T08:38:30.298Z,12.20
2023-12-23T08:40:32.106Z,12.20
2023-12-23T08:42:33.823Z,12.30
2023-12-23T08:44:35.526Z,12.20
2023-12-23T08:46:37.674Z,12.20
2023-12-23T08:48:39.605Z,12.30
2023-12-23T08:50:41.452Z,12.20
2023-12-23T08:52:43.834Z,12.30
2023-12-23T08:54:45.603Z,12.20
2023-12-23T08:56:47.297Z,12.20
2023-12-23T08:58:49.066Z,12.30
2023-12-23T09:00:50.872Z,12.20
2023-12-23T09:02:52.639Z,12.20
2023-12-23T09:04:54.657Z,12.20
2023-12-23T09:06:56.929Z,12.20
2023-12-23T09:09:00.301Z,12.20
2023-12-23T09:11:05.462Z,12.20
2023-12-23T09:13:07.721Z,12.20
2023-12-23T09:15:09.623Z,12.20
2023-12-23T09:17:11.401Z,12.20
2023-12-23T09:19:13.406Z,12.20
2023-12-23T09:21:15.270Z,12.20
2023-12-23T09:23:16.999Z,12.20
2023-12-23T09:25:19.926Z,12.20
2023-12-23T09:27:21.687Z,12.20
2023-12-23T09:29:23.537Z,12.20
2023-12-23T09:31:25.342Z,12.20
2023-12-23T09:33:27.209Z,12.20
2023-12-23T09:35:29.148Z,12.20
2023-12-23T09:37:30.999Z,12.20
2023-12-23T09:39:32.751Z,12.20
2023-12-23T09:41:34.638Z,12.20
2023-12-23T09:43:36.474Z,12.20
2023-12-23T09:45:38.752Z,12.20
2023-12-23T09:47:40.783Z,12.20
2023-12-23T09:49:42.682Z,12.20
2023-12-23T09:51:45.061Z,12.20
2023-12-23T09:53:47.353Z,12.20
2023-12-23T09:55:49.195Z,12.20
2023-12-23T09:57:51.154Z,12.20
2023-12-23T09:59:53.516Z,12.20
2023-12-23T10:01:56.408Z,12.20
2023-12-23T10:03:58.248Z,12.20
2023-12-23T10:06:03.360Z,12.20
2023-12-23T10:08:05.456Z,12.20
2023-12-23T10:10:07.609Z,12.20
2023-12-23T10:12:09.373Z,12.20
2023-12-23T10:14:11.281Z,12.20
2023-12-23T10:16:14.980Z,12.20
2023-12-23T10:18:16.872Z,12.20
2023-12-23T10:20:18.728Z,12.20
2023-12-23T10:22:20.565Z,12.20
2023-12-23T10:24:22.269Z,12.20
2023-12-23T10:26:24.433Z,12.20
2023-12-23T10:28:27.015Z,12.20
2023-12-23T10:30:29.902Z,12.20
2023-12-23T10:32:33.241Z,12.20
2023-12-23T10:34:44.062Z,12.20
2023-12-23T10:36:45.867Z,12.20
2023-12-23T10:38:54.515Z,12.20
2023-12-23T10:41:19.063Z,12.20
2023-12-23T10:43:21.553Z,12.20
2023-12-23T10:45:23.371Z,12.20
2023-12-23T10:47:26.716Z,12.20
2023-12-23T10:49:29.364Z,12.20
2023-12-23T10:51:31.597Z,12.20
2023-12-23T10:53:34.111Z,12.20
2023-12-23T10:55:39.161Z,12.20
2023-12-23T10:57:41.906Z,12.20
2023-12-23T10:59:43.866Z,12.20
2023-12-23T11:01:46.364Z,12.20
2023-12-23T11:03:50.648Z,12.20
2023-12-23T11:05:53.249Z,12.20
2023-12-23T11:08:01.600Z,12.30
2023-12-23T11:10:07.133Z,12.20
2023-12-23T11:12:09.442Z,12.20
2023-12-23T11:14:11.809Z,12.20
2023-12-23T11:16:16.064Z,12.20
2023-12-23T11:18:17.949Z,12.20
2023-12-23T11:20:36.618Z,12.20
2023-12-23T11:22:39.454Z,12.30
2023-12-23T11:24:41.555Z,12.30
2023-12-23T11:26:43.651Z,12.20
2023-12-23T11:28:47.667Z,12.30
2023-12-23T11:30:50.468Z,12.30
2023-12-23T11:32:52.787Z,12.30
2023-12-23T11:34:54.832Z,12.30
2023-12-23T11:36:58.073Z,12.20
2023-12-23T11:38:59.944Z,12.20
2023-12-23T11:41:01.705Z,12.20
2023-12-23T11:43:04.854Z,12.20
2023-12-23T11:45:06.754Z,12.20
2023-12-23T11:47:09.533Z,12.20
2023-12-23T11:49:11.744Z,12.20
2023-12-23T11:51:14.065Z,12.20
2023-12-23T11:53:16.389Z,12.20
2023-12-23T11:55:18.378Z,12.20
2023-12-23T11:57:20.137Z,12.20
2023-12-23T11:59:21.893Z,12.20
2023-12-23T12:01:23.711Z,12.20
2023-12-23T12:03:25.929Z,12.20
2023-12-23T12:05:29.815Z,12.10
2023-12-23T12:07:31.821Z,12.20
2023-12-23T12:09:33.864Z,12.20
2023-12-23T12:11:35.841Z,12.10
2023-12-23T12:13:38.549Z,12.20
2023-12-23T12:15:41.656Z,12.10
2023-12-23T12:17:43.617Z,12.10
2023-12-23T12:19:45.681Z,12.10
2023-12-23T12:21:47.494Z,12.10
2023-12-23T12:23:49.233Z,12.10
2023-12-23T12:25:51.564Z,12.10
2023-12-23T12:27:53.559Z,12.10
2023-12-23T12:29:55.532Z,12.10
2023-12-23T12:31:58.501Z,12.10
2023-12-23T12:34:00.501Z,12.10
2023-12-23T12:36:02.477Z,12.10
2023-12-23T12:38:13.714Z,12.10
2023-12-23T12:40:20.859Z,12.10
2023-12-23T12:42:24.853Z,12.10
2023-12-23T12:44:27.136Z,12.10
2023-12-23T12:46:33.141Z,12.10
2023-12-23T12:48:44.214Z,12.00
2023-12-23T12:50:46.191Z,12.00
2023-12-23T12:52:48.701Z,12.00
2023-12-23T12:54:50.654Z,12.00
2023-12-23T12:56:52.602Z,12.10
2023-12-23T12:58:54.473Z,12.10
2023-12-23T13:00:56.310Z,12.10
2023-12-23T13:02:58.363Z,12.10
2023-12-23T13:05:00.273Z,12.10
2023-12-23T13:07:02.104Z,12.10
2023-12-23T13:09:05.459Z,12.10
2023-12-23T13:11:07.492Z,12.10
2023-12-23T13:13:09.324Z,12.10
2023-12-23T13:15:11.125Z,12.10
2023-12-23T13:17:13.092Z,12.20
2023-12-23T13:19:14.931Z,12.20
2023-12-23T13:21:17.228Z,12.20
2023-12-23T13:23:19.061Z,12.20
2023-12-23T13:25:20.833Z,12.20
2023-12-23T13:27:22.695Z,12.20
2023-12-23T13:29:24.556Z,12.20
2023-12-23T13:31:26.360Z,12.30
2023-12-23T13:33:28.727Z,12.20
2023-12-23T13:35:30.727Z,12.20
2023-12-23T13:37:32.800Z,12.20
2023-12-23T13:39:34.634Z,12.20
2023-12-23T13:41:36.780Z,12.20
2023-12-23T13:43:38.932Z,12.20
2023-12-23T13:45:40.755Z,12.20
2023-12-23T13:47:42.583Z,12.20
2023-12-23T13:49:44.671Z,12.20
2023-12-23T13:51:46.446Z,12.20
2023-12-23T13:53:48.272Z,12.30
2023-12-23T13:55:51.164Z,12.30
2023-12-23T13:57:52.937Z,12.30
2023-12-23T13:59:54.773Z,12.30
2023-12-23T14:01:56.577Z,12.30
2023-12-23T14:03:58.388Z,12.30
2023-12-23T14:06:04.601Z,12.30
2023-12-23T14:08:09.299Z,12.30
2023-12-23T14:10:12.236Z,12.40
2023-12-23T14:12:25.941Z,12.40
2023-12-23T14:14:42.130Z,12.40
2023-12-23T14:16:53.792Z,12.40
2023-12-23T14:18:59.162Z,12.40
2023-12-23T14:21:01.061Z,12.40
2023-12-23T14:23:06.128Z,12.40
2023-12-23T14:25:09.281Z,12.50
2023-12-23T14:27:17.369Z,12.40
2023-12-23T14:29:25.507Z,12.40
2023-12-23T14:31:30.624Z,12.50
2023-12-23T14:33:35.407Z,12.50
2023-12-23T14:35:38.246Z,12.50
2023-12-23T14:37:45.430Z,12.50
2023-12-23T14:39:52.584Z,12.50
2023-12-23T14:41:54.459Z,12.50
2023-12-23T14:43:56.423Z,12.50
2023-12-23T14:45:58.274Z,12.50
2023-12-23T14:48:00.492Z,12.50
2023-12-23T14:50:02.446Z,12.50
2023-12-23T14:52:04.399Z,12.60
2023-12-23T14:54:06.492Z,12.60
2023-12-23T14:56:08.389Z,12.60
2023-12-23T14:58:11.617Z,12.60
2023-12-23T15:00:13.670Z,12.60
2023-12-23T15:02:17.384Z,12.60
2023-12-23T15:04:19.265Z,12.60
2023-12-23T15:06:21.309Z,12.60
2023-12-23T15:08:23.206Z,12.50
2023-12-23T15:10:25.041Z,12.60
2023-12-23T15:12:27.533Z,12.60
2023-12-23T15:14:29.468Z,12.60
2023-12-23T15:16:31.673Z,12.60
2023-12-23T15:18:34.148Z,12.60
2023-12-23T15:20:36.948Z,12.60
2023-12-23T15:22:38.945Z,12.50
2023-12-23T15:24:40.776Z,12.60
2023-12-23T15:26:42.577Z,12.50
2023-12-23T15:28:44.477Z,12.50
2023-12-23T15:30:48.197Z,12.50
2023-12-23T15:32:50.423Z,12.50
2023-12-23T15:34:52.565Z,12.50
2023-12-23T15:36:56.996Z,12.50
2023-12-23T15:38:59.326Z,12.50
2023-12-23T15:41:01.295Z,12.50
2023-12-23T15:43:05.462Z,12.50
2023-12-23T15:45:07.592Z,12.50
2023-12-23T15:47:10.540Z,12.50
2023-12-23T15:49:12.692Z,12.50
2023-12-23T15:51:14.770Z,12.50
2023-12-23T15:53:17.241Z,12.50
2023-12-23T15:55:19.137Z,12.50
2023-12-23T15:57:20.961Z,12.50
2023-12-23T15:59:22.809Z,12.50
2023-12-23T16:01:25.296Z,12.50
2023-12-23T16:03:27.096Z,12.50
2023-12-23T16:05:29.186Z,12.50
2023-12-23T16:07:31.219Z,12.50
2023-12-23T16:09:33.004Z,12.50
2023-12-23T16:11:37.986Z,12.50
2023-12-23T16:13:40.820Z,12.50
2023-12-23T16:15:42.799Z,12.50
2023-12-23T16:17:44.767Z,12.50
2023-12-23T16:19:46.848Z,12.50
2023-12-23T16:21:48.677Z,12.50
2023-12-23T16:23:50.577Z,12.50
2023-12-23T16:25:52.431Z,12.50
2023-12-23T16:27:54.478Z,12.50
2023-12-23T16:29:56.742Z,12.50
2023-12-23T16:32:00.268Z,12.50
2023-12-23T16:34:03.915Z,12.60
2023-12-23T16:36:09.475Z,12.60
2023-12-23T16:38:11.484Z,12.60
2023-12-23T16:40:13.539Z,12.60
2023-12-23T16:42:15.657Z,12.60
2023-12-23T16:44:17.533Z,12.60
2023-12-23T16:46:19.424Z,12.60
2023-12-23T16:48:21.417Z,12.60
2023-12-23T16:50:23.543Z,12.60
2023-12-23T16:52:25.406Z,12.60
2023-12-23T16:54:27.252Z,12.60
2023-12-23T16:56:29.127Z,12.60
2023-12-23T16:58:31.007Z,12.60
2023-12-23T17:00:32.946Z,12.60
2023-12-23T17:02:35.139Z,12.70
2023-12-23T17:04:37.176Z,12.70
2023-12-23T17:06:39.521Z,12.60
2023-12-23T17:08:42.359Z,12.60
2023-12-23T17:10:45.629Z,12.60
2023-12-23T17:12:48.937Z,12.60
2023-12-23T17:14:54.329Z,12.60
2023-12-23T17:16:56.968Z,12.60
2023-12-23T17:19:00.840Z,12.60
2023-12-23T17:21:06.222Z,12.60
2023-12-23T17:23:09.302Z,12.60
2023-12-23T17:25:12.877Z,12.60
2023-12-23T17:27:18.211Z,12.60
2023-12-23T17:29:22.792Z,12.60
2023-12-23T17:31:25.563Z,12.60
2023-12-23T17:33:33.104Z,12.60
2023-12-23T17:37:38.666Z,12.60
2023-12-23T17:39:41.542Z,12.60
2023-12-23T17:41:44.410Z,12.50
2023-12-23T17:43:47.402Z,12.50
2023-12-23T17:45:55.293Z,12.50
2023-12-23T17:47:59.428Z,12.50
2023-12-23T17:50:02.606Z,12.50
2023-12-23T17:52:05.488Z,12.50
2023-12-23T17:54:14.405Z,12.50
2023-12-23T17:56:19.996Z,12.50
2023-12-23T17:58:22.906Z,12.50
2023-12-23T18:00:26.674Z,12.50
2023-12-23T18:02:30.281Z,12.50
2023-12-23T18:04:32.800Z,12.50
2023-12-23T18:06:41.183Z,12.50
2023-12-23T18:08:45.197Z,12.50
2023-12-23T18:10:47.804Z,12.50
2023-12-23T18:12:51.302Z,12.50
2023-12-23T18:14:58.047Z,12.50
2023-12-23T18:17:04.754Z,12.50
2023-12-23T18:19:08.099Z,12.50
2023-12-23T18:21:13.563Z,12.50
2023-12-23T18:25:49.157Z,12.50
2023-12-23T18:27:53.167Z,12.50
2023-12-23T18:29:55.925Z,12.50
2023-12-23T18:31:58.763Z,12.50
2023-12-23T18:34:01.025Z,12.50
2023-12-23T18:36:02.935Z,12.50
2023-12-23T18:38:06.358Z,12.60
2023-12-23T18:40:08.602Z,12.60
2023-12-23T18:42:10.482Z,12.60
2023-12-23T18:44:13.531Z,12.60
2023-12-23T18:46:15.405Z,12.60
2023-12-23T18:48:17.363Z,12.60
2023-12-23T18:50:19.320Z,12.60
2023-12-23T18:52:27.495Z,12.60
2023-12-23T18:54:29.328Z,12.60
2023-12-23T18:56:31.380Z,12.60
2023-12-23T18:58:33.305Z,12.60
2023-12-23T19:00:39.111Z,12.60
2023-12-23T19:02:44.544Z,12.60
2023-12-23T19:04:48.295Z,12.60
2023-12-23T19:06:50.609Z,12.60
2023-12-23T19:08:52.761Z,12.60
2023-12-23T19:10:57.103Z,12.60
2023-12-23T19:12:59.008Z,12.60
2023-12-23T19:15:00.796Z,12.60
2023-12-23T19:17:02.707Z,12.60
2023-12-23T19:19:05.577Z,12.60
2023-12-23T19:21:07.602Z,12.60
2023-12-23T19:23:09.630Z,12.60
2023-12-23T19:25:11.514Z,12.60
2023-12-23T19:27:13.316Z,12.60
2023-12-23T19:29:15.309Z,12.60
2023-12-23T19:31:17.171Z,12.60
2023-12-23T19:33:19.145Z,12.60
2023-12-23T19:35:21.109Z,12.60
2023-12-23T19:37:23.053Z,12.60
2023-12-23T19:39:25.013Z,12.60
2023-12-23T19:41:26.919Z,12.60
2023-12-23T19:43:28.807Z,12.60
2023-12-23T19:45:30.745Z,12.60
2023-12-23T19:47:33.607Z,12.70
2023-12-23T19:49:35.560Z,12.70
2023-12-23T19:51:37.471Z,12.70
2023-12-23T19:53:39.597Z,12.60
2023-12-23T19:55:43.280Z,12.60
2023-12-23T19:57:45.200Z,12.70
2023-12-23T19:59:47.142Z,12.70
2023-12-23T20:01:49.184Z,12.70
2023-12-23T20:03:53.129Z,12.70
2023-12-23T20:05:56.839Z,12.70
2023-12-23T20:07:58.840Z,12.70
2023-12-23T20:10:01.643Z,12.70
2023-12-23T20:12:03.804Z,12.70
2023-12-23T20:14:05.846Z,12.70
2023-12-23T20:16:08.078Z,12.70
2023-12-23T20:18:10.052Z,12.70
2023-12-23T20:20:12.303Z,12.70
2023-12-23T20:22:14.420Z,12.80
2023-12-23T20:24:18.466Z,12.70
2023-12-23T20:26:20.924Z,12.70
2023-12-23T20:28:22.930Z,12.80
2023-12-23T20:30:24.915Z,12.70
2023-12-23T20:32:28.640Z,12.70
2023-12-23T20:34:30.749Z,12.70
2023-12-23T20:36:33.091Z,12.70
2023-12-23T20:38:35.854Z,12.70
2023-12-23T20:40:37.859Z,12.70
2023-12-23T20:42:41.137Z,12.70
2023-12-23T20:44:43.452Z,12.70
2023-12-23T20:46:45.546Z,12.70
2023-12-23T20:48:47.560Z,12.70
2023-12-23T20:50:49.447Z,12.70
2023-12-23T20:52:52.065Z,12.70
2023-12-23T20:54:54.249Z,12.70
2023-12-23T20:56:56.166Z,12.70
2023-12-23T20:58:58.116Z,12.70
2023-12-23T21:01:00.314Z,12.70
2023-12-23T21:03:02.353Z,12.70
2023-12-23T21:05:04.528Z,12.70
2023-12-23T21:07:09.963Z,12.70
2023-12-23T21:09:12.017Z,12.70
2023-12-23T21:11:15.900Z,12.70
2023-12-23T21:13:17.813Z,12.70
2023-12-23T21:15:19.698Z,12.70
2023-12-23T21:17:21.531Z,12.70
2023-12-23T21:19:24.781Z,12.70
2023-12-23T21:21:26.662Z,12.70
2023-12-23T21:23:28.550Z,12.70
2023-12-23T21:25:30.437Z,12.70
2023-12-23T21:27:32.328Z,12.70
2023-12-23T21:29:34.430Z,12.70
2023-12-23T21:31:36.419Z,12.70
2023-12-23T21:33:38.507Z,12.80
2023-12-23T21:35:40.680Z,12.80
2023-12-23T21:37:42.590Z,12.80
2023-12-23T21:39:44.473Z,12.80
2023-12-23T21:41:46.343Z,12.80
2023-12-23T21:43:48.198Z,12.80
2023-12-23T21:45:50.149Z,12.80
2023-12-23T21:47:55.009Z,12.80
2023-12-23T21:49:58.656Z,12.80
2023-12-23T21:52:00.509Z,12.80
2023-12-23T21:54:03.503Z,12.80
2023-12-23T21:56:07.081Z,12.80
2023-12-23T21:58:09.059Z,12.80
2023-12-23T22:00:11.235Z,12.80
2023-12-23T22:02:14.243Z,12.80
2023-12-23T22:04:23.388Z,12.90
2023-12-23T22:06:27.663Z,12.90
2023-12-23T22:08:29.588Z,12.90
2023-12-23T22:10:31.507Z,12.80
2023-12-23T22:12:33.422Z,12.80
2023-12-23T22:14:35.313Z,12.80
2023-12-23T22:16:37.355Z,12.80
2023-12-23T22:18:39.415Z,12.80
2023-12-23T22:20:41.344Z,12.80
2023-12-23T22:22:43.201Z,12.80
2023-12-23T22:24:45.221Z,12.80
2023-12-23T22:26:47.196Z,12.80
2023-12-23T22:28:49.045Z,12.80
2023-12-23T22:30:51.202Z,12.80
2023-12-23T22:32:53.381Z,12.80
2023-12-23T22:34:56.013Z,12.80
2023-12-23T22:36:57.894Z,12.70
2023-12-23T22:38:59.749Z,12.70
2023-12-23T22:41:04.446Z,12.70
2023-12-23T22:43:07.628Z,12.70
2023-12-23T22:45:09.610Z,12.70
2023-12-23T22:47:11.459Z,12.70
2023-12-23T22:49:13.338Z,12.70
2023-12-23T22:51:15.243Z,12.70
2023-12-23T22:53:17.161Z,12.70
2023-12-23T22:55:18.976Z,12.70
2023-12-23T22:57:20.823Z,12.70
2023-12-23T22:59:22.959Z,12.70
2023-12-23T23:01:24.748Z,12.70
2023-12-23T23:03:27.525Z,12.70
2023-12-23T23:05:29.579Z,12.70
2023-12-23T23:07:31.502Z,12.70
2023-12-23T23:09:33.828Z,12.70
2023-12-23T23:11:35.677Z,12.70
2023-12-23T23:13:37.511Z,12.70
2023-12-23T23:15:39.324Z,12.70
2023-12-23T23:17:41.409Z,12.70
2023-12-23T23:19:44.006Z,12.70
2023-12-23T23:21:45.881Z,12.80
2023-12-23T23:23:47.733Z,12.80
2023-12-23T23:25:49.518Z,12.80
2023-12-23T23:27:51.311Z,12.80
2023-12-23T23:29:53.738Z,12.80
2023-12-23T23:31:55.690Z,12.80
2023-12-23T23:33:57.649Z,12.80
2023-12-23T23:35:59.490Z,12.70
2023-12-23T23:38:01.315Z,12.80
2023-12-23T23:40:03.529Z,12.70
2023-12-23T23:42:05.407Z,12.70
2023-12-23T23:44:07.383Z,12.70
2023-12-23T23:46:14.651Z,12.70
2023-12-23T23:48:16.581Z,12.70
2023-12-23T23:50:21.067Z,12.70
2023-12-23T23:52:22.969Z,12.70
2023-12-23T23:54:24.803Z,12.70
2023-12-23T23:56:26.783Z,12.70
2023-12-23T23:58:28.583Z,12.60
